Time;durP1;ratioP1;P1;durP2;ratioP2;P2;SDS_P1;SDS_P2;PMS_P1;PMS_P2;Temp;Humidity;BMP_temperature;BMP_pressure;BME280_temperature;BME280_humidity;BME280_pressure;Samples;Min_cycle;Max_cycle;Signal;HPM_P1;HPM_P2
2022/11/02 00:01:20;;;;;;;11.40;2.47;;;;;;;12.59;85.77;101376.91;5092077;28;20051;-71
2022/11/02 00:03:46;;;;;;;9.27;2.40;;;;;;;12.61;85.78;101373.34;5094625;28;20020;-72
2022/11/02 00:06:12;;;;;;;10.68;2.33;;;;;;;12.65;84.66;101380.25;5094508;28;20030;-72
2022/11/02 00:08:37;;;;;;;7.20;2.08;;;;;;;12.61;85.66;101382.94;5093894;28;20103;-71
2022/11/02 00:11:02;;;;;;;9.25;2.50;;;;;;;12.59;83.91;101377.75;5094306;28;20036;-71
2022/11/02 00:13:27;;;;;;;9.95;1.92;;;;;;;12.59;84.54;101385.59;5100678;28;20073;-71
2022/11/02 00:15:53;;;;;;;15.10;2.50;;;;;;;12.53;85.00;101377.03;5092572;28;20483;-72
2022/11/02 00:18:18;;;;;;;10.20;2.15;;;;;;;12.60;84.68;101381.22;5094412;28;20127;-71
2022/11/02 00:20:44;;;;;;;9.43;2.00;;;;;;;12.60;83.87;101379.47;5092854;28;20036;-72
2022/11/02 00:23:12;;;;;;;6.63;2.00;;;;;;;12.65;83.89;101376.72;5092770;28;20046;-72
2022/11/02 00:25:40;;;;;;;7.60;2.22;;;;;;;12.68;83.57;101384.50;5094155;28;20032;-72
2022/11/02 00:28:06;;;;;;;12.57;2.03;;;;;;;12.72;82.82;101394.03;5093559;28;20028;-72
2022/11/02 00:30:31;;;;;;;10.07;2.08;;;;;;;12.67;83.73;101376.72;5093151;28;20035;-72
2022/11/02 00:32:57;;;;;;;8.50;1.75;;;;;;;12.72;82.93;101382.69;5091152;28;20043;-71
2022/11/02 00:35:22;;;;;;;8.82;2.55;;;;;;;12.72;83.02;101391.41;5091656;28;20028;-71
2022/11/02 00:37:47;;;;;;;7.82;1.70;;;;;;;12.73;82.71;101389.66;5090816;28;20035;-71
2022/11/02 00:40:13;;;;;;;6.72;1.55;;;;;;;12.69;82.31;101374.91;5092818;28;20032;-72
2022/11/02 00:42:38;;;;;;;8.98;1.75;;;;;;;12.71;82.66;101384.44;5093447;28;20115;-72
2022/11/02 00:45:04;;;;;;;7.88;1.90;;;;;;;12.74;82.47;101392.22;5092240;28;20099;-72
2022/11/02 00:47:29;;;;;;;7.38;1.90;;;;;;;12.61;81.57;101398.63;5092963;28;20047;-72
2022/11/02 00:49:55;;;;;;;7.85;1.52;;;;;;;12.51;81.56;101391.91;5091966;28;20472;-72
2022/11/02 00:52:20;;;;;;;7.32;1.55;;;;;;;12.37;81.81;101390.47;5091846;28;20032;-72
2022/11/02 00:54:45;;;;;;;6.35;1.50;;;;;;;12.35;82.25;101397.47;5090716;28;20036;-72
2022/11/02 00:57:10;;;;;;;9.50;1.67;;;;;;;12.19;81.98;101393.47;5092348;28;20039;-72
2022/11/02 00:59:36;;;;;;;9.60;1.83;;;;;;;12.19;82.13;101406.53;5092500;28;20039;-72
2022/11/02 01:02:01;;;;;;;6.88;1.60;;;;;;;12.18;83.53;101410.03;5091254;28;20453;-72
2022/11/02 01:04:26;;;;;;;3.88;1.50;;;;;;;12.11;83.37;101411.06;5091929;28;20032;-71
2022/11/02 01:06:52;;;;;;;7.80;1.80;;;;;;;12.02;84.91;101419.94;5090081;28;20016;-72
2022/11/02 01:09:17;;;;;;;12.77;1.83;;;;;;;11.90;84.72;101404.50;5090764;28;20027;-72
2022/11/02 01:11:42;;;;;;;15.95;2.78;;;;;;;11.85;84.26;101412.44;5092532;28;20035;-72
2022/11/02 01:14:09;;;;;;;9.85;1.80;;;;;;;11.76;84.76;101414.34;5091444;28;20028;-72
2022/11/02 01:16:34;;;;;;;9.90;1.60;;;;;;;11.80;84.38;101435.16;5091541;28;20020;-72
2022/11/02 01:18:59;;;;;;;8.30;1.58;;;;;;;11.75;84.93;101431.78;5090012;28;20042;-72
2022/11/02 01:21:25;;;;;;;7.95;1.70;;;;;;;11.69;83.80;101432.75;5091621;28;20016;-72
2022/11/02 01:23:50;;;;;;;9.07;1.88;;;;;;;11.65;83.86;101432.84;5092228;28;20085;-72
2022/11/02 01:26:16;;;;;;;4.45;1.20;;;;;;;11.66;83.36;101437.16;5091450;28;20039;-72
2022/11/02 01:28:42;;;;;;;6.47;1.67;;;;;;;11.57;83.59;101421.66;5091624;28;20024;-71
2022/11/02 01:31:09;;;;;;;8.60;1.50;;;;;;;11.56;84.06;101419.94;5092587;28;20479;-71
2022/11/02 01:33:35;;;;;;;11.60;1.92;;;;;;;11.53;83.38;101436.53;5093071;28;20028;-72
2022/11/02 01:36:05;;;;;;;8.20;2.20;;;;;;;11.51;83.39;101442.66;5093675;28;20059;-71
2022/11/02 01:38:31;;;;;;;7.35;1.58;;;;;;;11.42;83.12;101431.50;5092819;28;20028;-72
2022/11/02 01:40:56;;;;;;;5.75;1.60;;;;;;;11.40;82.90;101443.72;5093218;28;20030;-71
2022/11/02 01:43:30;;;;;;;6.03;1.23;;;;;;;11.40;82.60;101437.63;5092617;28;20038;-72
2022/11/02 01:46:10;;;;;;;9.00;1.70;;;;;;;11.38;83.40;101445.50;5091867;28;20035;-71
2022/11/02 01:48:41;;;;;;;5.63;1.83;;;;;;;11.39;83.10;101447.22;5092531;28;20076;-72
2022/11/02 01:51:12;;;;;;;4.68;1.73;;;;;;;11.43;83.04;101454.09;5092703;28;20398;-72
2022/11/02 01:53:42;;;;;;;5.80;1.33;;;;;;;11.42;82.80;101449.78;5093104;28;20024;-72
2022/11/02 01:56:11;;;;;;;6.70;1.58;;;;;;;11.46;83.18;101445.34;5093130;28;20019;-72
2022/11/02 01:58:36;;;;;;;11.50;1.70;;;;;;;11.53;82.20;101444.34;5091847;28;20032;-72
2022/11/02 02:01:01;;;;;;;7.35;1.45;;;;;;;11.60;83.06;101448.56;5090727;28;20069;-71
2022/11/02 02:03:31;;;;;;;13.75;1.80;;;;;;;11.64;82.52;101455.50;5091122;28;20486;-71
2022/11/02 02:06:01;;;;;;;6.97;1.67;;;;;;;11.61;82.84;101449.47;5090019;28;20047;-71
2022/11/02 02:08:27;;;;;;;6.70;1.50;;;;;;;11.51;83.62;101446.16;5080095;28;20074;-71
2022/11/02 02:10:57;;;;;;;7.97;1.40;;;;;;;11.57;83.93;101463.44;5090455;28;20491;-71
2022/11/02 02:13:24;;;;;;;7.80;1.85;;;;;;;11.47;84.14;101463.59;5088750;28;21724;-72
2022/11/02 02:16:06;;;;;;;6.47;1.25;;;;;;;11.36;83.72;101449.88;5089658;28;20479;-71
2022/11/02 02:18:44;;;;;;;7.90;2.13;;;;;;;11.23;84.67;101450.97;5088991;28;20055;-71
2022/11/02 02:21:24;;;;;;;9.48;2.10;;;;;;;11.22;84.77;101460.56;5089402;28;20024;-71
2022/11/02 02:24:04;;;;;;;7.05;1.75;;;;;;;11.10;85.34;101452.91;5077055;28;20124;-72
2022/11/02 02:26:57;;;;;;;6.20;1.77;;;;;;;11.07;85.65;101471.22;5089464;28;20032;-71
2022/11/02 02:29:39;;;;;;;8.15;2.13;;;;;;;11.04;86.00;101475.63;5090267;28;20479;-72
2022/11/02 02:32:23;;;;;;;10.20;2.40;;;;;;;11.02;86.56;101465.22;5091872;28;20147;-71
2022/11/02 02:34:57;;;;;;;;;;;;;;;11.00;86.19;101465.25;5090696;28;20032;-72
2022/11/02 02:37:38;;;;;;;;;;;;;;;11.02;85.83;101462.63;5078598;28;19923;-72
2022/11/02 02:40:07;;;;;;;10.63;2.03;;;;;;;10.99;86.33;101466.13;5090480;28;19912;-71
2022/11/02 02:42:38;;;;;;;8.60;1.70;;;;;;;10.92;86.74;101459.28;5090988;28;20028;-72
2022/11/02 02:45:16;;;;;;;8.07;1.80;;;;;;;10.99;86.77;101450.47;5077120;28;20033;-72
2022/11/02 02:47:48;;;;;;;5.82;1.65;;;;;;;10.96;86.80;101462.72;5090364;28;20046;-72
2022/11/02 02:50:20;;;;;;;6.80;1.40;;;;;;;10.94;87.21;101459.25;5089587;28;20081;-71
2022/11/02 02:52:49;;;;;;;10.43;1.55;;;;;;;10.89;87.09;101472.38;5079221;28;20032;-72
2022/11/02 02:55:21;;;;;;;13.32;2.17;;;;;;;10.91;87.76;101465.38;5089833;28;20054;-71
2022/11/02 02:57:48;;;;;;;10.70;1.80;;;;;;;10.91;86.43;101475.81;5090254;28;20036;-72
2022/11/02 03:00:16;;;;;;;8.48;1.52;;;;;;;10.90;86.80;101487.13;5087664;28;20020;-72
2022/11/02 03:02:43;;;;;;;6.60;1.52;;;;;;;10.92;85.75;101472.34;5089344;28;20379;-71
2022/11/02 03:05:27;;;;;;;8.35;2.30;;;;;;;10.93;86.32;101481.03;5090898;28;20158;-71
2022/11/02 03:07:53;;;;;;;14.32;2.88;;;;;;;10.92;85.62;101482.78;5090642;28;20016;-71
2022/11/02 03:10:23;;;;;;;13.55;1.77;;;;;;;10.85;87.10;101464.59;5090112;28;20111;-71
2022/11/02 03:13:08;;;;;;;10.00;2.00;;;;;;;10.84;86.50;101487.22;5087505;28;20036;-71
2022/11/02 03:16:03;;;;;;;10.25;2.00;;;;;;;10.82;86.76;101491.59;5090066;28;20035;-71
2022/11/02 03:18:46;;;;;;;11.15;2.00;;;;;;;10.82;86.53;101472.47;5087466;28;20032;-72
2022/11/02 03:21:19;;;;;;;9.43;2.47;;;;;;;10.79;86.55;101478.63;5089430;28;20031;-72
2022/11/02 03:23:53;;;;;;;8.80;2.25;;;;;;;10.80;86.70;101485.56;5091434;28;20115;-71
2022/11/02 03:26:45;;;;;;;15.57;2.35;;;;;;;10.90;86.02;101481.06;5091071;28;20028;-71
2022/11/02 03:29:25;;;;;;;9.43;2.00;;;;;;;10.93;85.44;101487.09;5090838;28;20028;-71
2022/11/02 03:32:07;;;;;;;11.35;2.20;;;;;;;10.96;86.18;101497.50;5090513;28;20028;-72
2022/11/02 03:34:44;;;;;;;16.50;2.25;;;;;;;10.91;85.95;101491.47;5092906;28;20043;-71
2022/11/02 03:37:23;;;;;;;12.02;1.90;;;;;;;10.94;85.68;101508.81;5089114;28;20472;-72
2022/11/02 03:39:52;;;;;;;8.35;1.98;;;;;;;10.90;86.11;101515.84;5094829;28;20024;-71
2022/11/02 03:42:26;;;;;;;10.02;1.92;;;;;;;10.91;85.26;101498.44;5093733;28;20032;-71
2022/11/02 03:44:59;;;;;;;10.30;2.20;;;;;;;10.86;85.32;101501.13;5094597;28;20036;-71
2022/11/02 03:47:29;;;;;;;12.50;2.45;;;;;;;10.91;85.63;101519.31;5093123;28;20479;-71
2022/11/02 03:49:56;;;;;;;10.70;2.58;;;;;;;10.86;85.37;101521.97;5093733;28;20063;-71
2022/11/02 03:52:25;;;;;;;18.58;2.35;;;;;;;10.87;85.91;101520.22;5091906;28;20028;-71
2022/11/02 03:55:16;;;;;;;12.60;2.75;;;;;;;10.89;85.63;101526.28;5094287;28;20047;-72
2022/11/02 03:57:45;;;;;;;11.05;2.38;;;;;;;10.85;85.45;101520.25;5092722;28;20024;-71
2022/11/02 04:00:17;;;;;;;7.45;1.88;;;;;;;10.81;86.32;101518.56;5094248;28;20143;-72
2022/11/02 04:02:46;;;;;;;10.35;2.10;;;;;;;10.81;86.74;101538.56;5092789;28;20022;-71
2022/11/02 04:05:12;;;;;;;9.52;2.20;;;;;;;10.78;87.57;101534.25;5094327;28;20475;-72
2022/11/02 04:10:25;;;;;;;14.25;2.38;;;;;;;10.84;87.21;101552.44;5094077;28;20391;-71
2022/11/02 04:15:34;;;;;;;9.98;2.20;;;;;;;10.76;87.62;101551.69;5094199;28;20105;-71
2022/11/02 04:21:03;;;;;;;18.23;2.70;;;;;;;10.60;88.05;101548.41;5050335;28;20136;-71
2022/11/02 04:26:12;;;;;;;10.55;2.40;;;;;;;10.62;88.83;101570.09;5075529;28;20094;-72
2022/11/02 04:28:37;;;;;;;13.55;2.50;;;;;;;10.61;87.80;101575.34;5092662;28;20027;-71
2022/11/02 04:31:02;;;;;;;17.83;2.85;;;;;;;10.63;87.83;101565.75;5091140;28;20024;-71
2022/11/02 04:33:34;;;;;;;15.85;2.47;;;;;;;10.63;87.83;101573.59;5090820;28;20566;-72
2022/11/02 04:36:04;;;;;;;11.73;2.40;;;;;;;10.57;88.96;101571.03;5093873;28;20055;-71
2022/11/02 04:38:39;;;;;;;14.07;2.60;;;;;;;10.52;89.58;101584.13;5094031;28;20051;-72
2022/11/02 04:43:49;;;;;;;11.45;2.50;;;;;;;10.50;89.52;101602.41;5078068;28;20039;-71
2022/11/02 04:46:14;;;;;;;11.02;1.80;;;;;;;10.52;89.44;101613.66;5090671;28;20020;-71
2022/11/02 04:48:39;;;;;;;12.63;2.78;;;;;;;10.52;88.80;101625.81;5090943;28;20048;-71
2022/11/02 04:51:05;;;;;;;13.55;2.40;;;;;;;10.54;89.16;101624.94;5092210;28;20032;-71
2022/11/02 04:53:30;;;;;;;10.90;2.22;;;;;;;10.56;89.82;101622.31;5093820;28;20028;-71
2022/11/02 04:55:55;;;;;;;14.68;3.58;;;;;;;10.60;88.28;101612.72;5091808;28;20065;-71
2022/11/02 04:58:21;;;;;;;13.68;2.67;;;;;;;10.57;88.04;101610.16;5091791;28;20479;-71
2022/11/02 05:00:46;;;;;;;9.75;2.13;;;;;;;10.54;89.01;101614.50;5092678;28;20038;-72
2022/11/02 05:03:11;;;;;;;9.52;2.20;;;;;;;10.66;88.63;101631.78;5091452;28;20099;-71
2022/11/02 05:05:36;;;;;;;14.35;2.63;;;;;;;10.76;88.17;101635.16;5092848;28;20033;-71
2022/11/02 05:08:02;;;;;;;12.13;2.10;;;;;;;10.69;88.57;101612.59;5091375;28;20058;-72
2022/11/02 05:10:27;;;;;;;16.77;2.42;;;;;;;10.74;87.44;101621.25;5089704;28;20028;-71
2022/11/02 05:12:57;;;;;;;12.32;2.20;;;;;;;10.93;86.35;101654.06;5092250;28;20047;-72
2022/11/02 05:15:22;;;;;;;10.85;2.35;;;;;;;10.95;86.21;101649.69;5090226;28;20122;-71
2022/11/02 05:17:47;;;;;;;14.82;2.35;;;;;;;10.98;86.02;101657.47;5090456;28;20107;-71
2022/11/02 05:20:13;;;;;;;11.77;2.30;;;;;;;10.85;85.64;101631.53;5092721;28;20020;-72
2022/11/02 05:22:41;;;;;;;9.70;2.13;;;;;;;10.97;85.15;101650.53;5091777;28;20024;-72
2022/11/02 05:25:08;;;;;;;9.00;2.75;;;;;;;10.99;85.44;101668.78;5079668;28;20020;-72
2022/11/02 05:27:33;;;;;;;9.68;2.17;;;;;;;10.90;85.46;101661.06;5090048;28;20031;-71
2022/11/02 05:29:59;;;;;;;8.95;2.15;;;;;;;10.76;86.50;101663.84;5092048;28;20540;-71
2022/11/02 05:32:25;;;;;;;17.80;2.30;;;;;;;10.73;85.88;101682.13;5090540;28;20028;-71
2022/11/02 05:34:51;;;;;;;9.57;1.88;;;;;;;10.67;86.15;101690.00;5089966;28;20032;-71
2022/11/02 05:37:16;;;;;;;13.10;2.10;;;;;;;10.62;86.70;101691.78;5092186;28;20035;-71
2022/11/02 05:39:41;;;;;;;11.13;1.88;;;;;;;10.57;86.43;101693.59;5092883;28;20060;-72
2022/11/02 05:42:06;;;;;;;12.30;2.00;;;;;;;10.51;86.98;101692.75;5093392;28;20043;-71
2022/11/02 05:44:32;;;;;;;11.65;2.47;;;;;;;10.47;87.61;101701.50;5092357;28;20020;-71
2022/11/02 05:46:57;;;;;;;14.30;2.28;;;;;;;10.42;87.73;101691.97;5091539;28;20054;-71
2022/11/02 05:49:22;;;;;;;12.55;2.00;;;;;;;10.43;87.80;101704.13;5090425;28;20043;-71
2022/11/02 05:51:48;;;;;;;12.05;2.40;;;;;;;10.32;88.80;101717.25;5091614;28;20035;-72
2022/11/02 05:54:13;;;;;;;12.77;2.72;;;;;;;10.24;89.00;101719.91;5091754;28;20027;-72
2022/11/02 05:56:39;;;;;;;10.75;2.08;;;;;;;10.18;89.61;101721.69;5091153;28;20437;-71
2022/11/02 05:59:04;;;;;;;11.10;2.05;;;;;;;10.13;89.86;101726.94;5091598;28;20035;-72
2022/11/02 06:01:29;;;;;;;8.88;2.13;;;;;;;10.04;90.58;101722.66;5089956;28;20103;-71
2022/11/02 06:03:55;;;;;;;7.05;1.67;;;;;;;10.01;90.36;101743.53;5091042;28;20028;-71
2022/11/02 06:06:20;;;;;;;13.90;2.20;;;;;;;9.95;89.93;101733.16;5091057;28;20031;-72
2022/11/02 06:08:46;;;;;;;12.88;2.05;;;;;;;9.93;90.09;101728.81;5092110;28;20039;-71
2022/11/02 06:11:12;;;;;;;9.88;1.80;;;;;;;9.94;90.67;101741.84;5091169;28;20483;-71
2022/11/02 06:13:39;;;;;;;12.20;2.28;;;;;;;9.83;91.67;101730.63;5091103;28;20032;-71
2022/11/02 06:16:08;;;;;;;12.48;1.85;;;;;;;9.83;91.74;101754.06;5090896;28;20071;-71
2022/11/02 06:18:33;;;;;;;15.23;2.17;;;;;;;9.76;91.50;101753.22;5089262;28;20036;-71
2022/11/02 06:20:59;;;;;;;13.13;2.53;;;;;;;9.66;92.15;101746.34;5087314;28;20025;-72
2022/11/02 06:23:25;;;;;;;10.30;2.28;;;;;;;9.67;92.45;101757.63;5091081;28;20034;-72
2022/11/02 06:25:52;;;;;;;10.00;2.00;;;;;;;9.68;91.56;101767.16;5090501;28;20020;-71
2022/11/02 06:28:18;;;;;;;12.23;2.20;;;;;;;9.71;92.45;101770.63;5090173;28;20030;-72
2022/11/02 06:30:43;;;;;;;11.75;2.33;;;;;;;9.69;92.22;101781.91;5090743;28;20016;-71
2022/11/02 06:33:08;;;;;;;10.88;1.98;;;;;;;9.64;92.96;101781.91;5091759;28;20428;-71
2022/11/02 06:35:33;;;;;;;8.90;2.38;;;;;;;9.49;92.69;101769.00;5088867;28;20579;-71
2022/11/02 06:37:59;;;;;;;10.32;2.40;;;;;;;9.57;92.86;101788.88;5091755;28;20032;-72
2022/11/02 06:40:24;;;;;;;13.40;2.05;;;;;;;9.51;94.02;101785.44;5090312;28;20024;-71
2022/11/02 06:42:57;;;;;;;11.32;2.10;;;;;;;9.52;94.32;101806.28;5090876;28;20042;-71
2022/11/02 06:45:23;;;;;;;10.07;2.30;;;;;;;9.48;94.52;101812.38;5091575;28;20035;-71
2022/11/02 06:47:48;;;;;;;11.18;1.90;;;;;;;9.54;93.73;101827.94;5089981;28;20047;-72
2022/11/02 06:50:14;;;;;;;9.13;2.13;;;;;;;9.42;93.74;101820.19;5090564;28;20103;-71
2022/11/02 06:52:44;;;;;;;12.10;1.83;;;;;;;9.45;94.47;101838.41;5089865;28;20479;-71
2022/11/02 06:55:11;;;;;;;9.43;2.30;;;;;;;9.44;94.51;101843.59;5089524;28;20028;-72
2022/11/02 06:57:37;;;;;;;10.10;1.95;;;;;;;9.49;93.46;101863.56;5090601;28;20165;-72
2022/11/02 07:00:04;;;;;;;13.25;2.30;;;;;;;9.47;93.56;101862.69;5090581;28;20495;-72
2022/11/02 07:02:30;;;;;;;8.35;1.83;;;;;;;9.51;94.28;101867.00;5094083;28;20046;-72
2022/11/02 07:04:55;;;;;;;10.93;1.98;;;;;;;9.54;94.30;101881.75;5092310;28;20471;-72
2022/11/02 07:07:21;;;;;;;14.07;2.22;;;;;;;9.51;94.17;101877.41;5092640;28;20498;-72
2022/11/02 07:09:46;;;;;;;10.60;1.80;;;;;;;9.51;94.76;101885.22;5095696;28;20095;-72
2022/11/02 07:12:12;;;;;;;12.45;2.20;;;;;;;9.50;95.17;101896.53;5095811;28;20032;-71
2022/11/02 07:14:37;;;;;;;14.68;2.47;;;;;;;9.43;94.66;101883.53;5095547;28;20040;-72
2022/11/02 07:17:03;;;;;;;16.13;2.35;;;;;;;9.45;94.42;101887.88;5094586;28;20046;-72
2022/11/02 07:19:28;;;;;;;14.00;2.08;;;;;;;9.54;94.44;101905.19;5095827;28;20080;-71
2022/11/02 07:21:53;;;;;;;10.65;2.13;;;;;;;9.55;94.88;101919.97;5095640;28;20039;-71
2022/11/02 07:24:19;;;;;;;9.50;1.92;;;;;;;9.55;95.20;101917.34;5094665;28;20077;-72
2022/11/02 07:26:48;;;;;;;11.82;2.78;;;;;;;9.60;94.11;101924.25;5093510;28;20024;-72
2022/11/02 07:29:14;;;;;;;10.95;1.95;;;;;;;9.61;93.57;101914.72;5094203;28;20031;-72
2022/11/02 07:31:39;;;;;;;18.50;2.58;;;;;;;9.68;93.87;101928.56;5094320;28;20468;-71
2022/11/02 07:34:04;;;;;;;16.33;2.20;;;;;;;9.68;94.11;101926.88;5096058;28;20059;-72
2022/11/02 07:36:29;;;;;;;9.15;1.77;;;;;;;9.68;94.93;101925.97;5094308;28;20024;-72
2022/11/02 07:38:55;;;;;;;12.90;2.63;;;;;;;9.72;94.48;101933.78;5092015;28;20032;-72
2022/11/02 07:41:20;;;;;;;17.73;2.30;;;;;;;9.76;94.55;101940.72;5095364;28;20028;-72
2022/11/02 07:43:45;;;;;;;13.50;2.67;;;;;;;9.77;94.59;101932.03;5094966;28;20025;-72
2022/11/02 07:46:11;;;;;;;12.57;2.30;;;;;;;9.79;94.41;101943.31;5094795;28;20034;-72
2022/11/02 07:48:36;;;;;;;10.27;2.58;;;;;;;9.83;95.10;101944.16;5092538;28;20044;-72
2022/11/02 07:51:02;;;;;;;10.45;1.98;;;;;;;9.86;94.69;101946.78;5094569;28;20028;-71
2022/11/02 07:53:27;;;;;;;10.00;2.90;;;;;;;9.88;95.09;101952.84;5094585;28;20488;-71
2022/11/02 07:55:52;;;;;;;10.07;2.17;;;;;;;9.91;95.00;101947.63;5094287;28;20053;-71
2022/11/02 07:58:17;;;;;;;11.80;2.72;;;;;;;9.94;94.79;101955.44;5094076;28;20097;-71
2022/11/02 08:00:43;;;;;;;13.30;2.13;;;;;;;9.94;94.39;101960.66;5094894;28;20025;-72
2022/11/02 08:03:10;;;;;;;11.77;2.72;;;;;;;9.99;95.18;101958.03;5095175;28;20153;-71
2022/11/02 08:05:38;;;;;;;15.77;2.85;;;;;;;9.98;94.06;101957.16;5093197;28;20070;-72
2022/11/02 08:08:18;;;;;;;17.38;2.60;;;;;;;10.02;93.89;101958.88;5095121;28;20379;-71
2022/11/02 08:10:45;;;;;;;14.52;2.53;;;;;;;10.04;93.95;101954.53;5094592;28;20086;-71
2022/11/02 08:13:13;;;;;;;16.25;2.78;;;;;;;10.07;93.74;101962.34;5092198;28;20034;-71
2022/11/02 08:15:39;;;;;;;13.52;2.50;;;;;;;10.12;94.15;101971.88;5093290;28;20418;-71
2022/11/02 08:18:06;;;;;;;14.40;2.63;;;;;;;10.16;93.94;101970.97;5094065;28;20081;-71
2022/11/02 08:20:34;;;;;;;13.20;2.78;;;;;;;10.17;93.93;101977.91;5094299;28;20039;-71
2022/11/02 08:22:59;;;;;;;13.65;2.40;;;;;;;10.21;93.77;101977.06;5093989;28;20028;-71
2022/11/02 08:25:25;;;;;;;11.88;2.30;;;;;;;10.24;94.08;101977.91;5092303;28;20172;-71
2022/11/02 08:27:50;;;;;;;11.10;1.98;;;;;;;10.28;93.39;101974.44;5092041;28;20050;-72
2022/11/02 08:30:16;;;;;;;10.85;2.20;;;;;;;10.31;93.38;101986.59;5094643;28;20360;-71
2022/11/02 08:32:41;;;;;;;10.32;2.40;;;;;;;10.32;93.50;101980.50;5091972;28;20067;-71
2022/11/02 08:35:07;;;;;;;17.58;2.80;;;;;;;10.37;92.69;101986.59;5093589;28;20486;-71
2022/11/02 08:37:32;;;;;;;12.43;2.42;;;;;;;10.41;93.75;101985.69;5092819;28;20052;-72
2022/11/02 08:39:57;;;;;;;13.05;2.70;;;;;;;10.45;93.01;101990.00;5092258;28;20110;-72
2022/11/02 08:42:22;;;;;;;15.30;2.85;;;;;;;10.49;92.53;101996.94;5091492;28;20039;-72
2022/11/02 08:44:48;;;;;;;13.98;2.10;;;;;;;10.55;92.67;101996.91;5093301;28;20035;-72
2022/11/02 08:47:14;;;;;;;9.48;2.10;;;;;;;10.54;92.17;101971.72;5088787;28;20497;-72
2022/11/02 08:49:40;;;;;;;17.80;2.90;;;;;;;10.63;91.82;101998.63;5085543;28;20028;-72
2022/11/02 08:52:05;;;;;;;12.55;2.47;;;;;;;10.69;89.66;101998.56;5091915;28;20035;-72
2022/11/02 08:54:31;;;;;;;10.02;2.22;;;;;;;10.78;89.88;102002.00;5092177;28;20078;-72
2022/11/02 08:56:56;;;;;;;10.63;2.58;;;;;;;10.76;90.52;102000.31;5093930;28;20024;-72
2022/11/02 08:59:21;;;;;;;15.98;2.58;;;;;;;10.84;90.72;102008.06;5092919;28;20032;-72
2022/11/02 09:01:47;;;;;;;14.30;2.72;;;;;;;10.88;90.41;102004.56;5091944;28;20056;-72
2022/11/02 09:04:12;;;;;;;14.98;2.13;;;;;;;10.90;89.71;102006.28;5091451;28;20384;-72
2022/11/02 09:06:37;;;;;;;14.90;3.17;;;;;;;10.94;90.28;102007.13;5094124;28;20024;-72
2022/11/02 09:09:03;;;;;;;16.05;2.50;;;;;;;10.97;90.87;102010.59;5092525;28;21069;-72
2022/11/02 09:11:28;;;;;;;12.43;2.22;;;;;;;10.99;89.25;102007.97;5091438;28;20503;-72
2022/11/02 09:13:54;;;;;;;16.58;3.13;;;;;;;11.04;88.81;102006.19;5093858;28;20398;-71
2022/11/02 09:16:19;;;;;;;13.32;2.35;;;;;;;11.06;89.12;102008.81;5091649;28;20422;-72
2022/11/02 09:18:44;;;;;;;12.20;2.17;;;;;;;11.10;88.63;102021.81;5092230;28;20048;-72
2022/11/02 09:21:10;;;;;;;13.52;2.35;;;;;;;11.11;89.07;102013.09;5092638;28;20047;-72
2022/11/02 09:23:35;;;;;;;16.60;2.60;;;;;;;11.02;87.98;101995.78;5092972;28;20078;-72
2022/11/02 09:26:00;;;;;;;16.85;3.00;;;;;;;11.13;89.00;102016.56;5091931;28;20039;-72
2022/11/02 09:28:26;;;;;;;12.07;2.40;;;;;;;11.17;88.99;102026.09;5091225;28;20032;-73
2022/11/02 09:30:51;;;;;;;15.45;2.80;;;;;;;11.19;89.30;102023.50;5091764;28;20027;-71
2022/11/02 09:33:17;;;;;;;14.38;2.83;;;;;;;11.23;88.69;102019.97;5090092;28;20044;-72
2022/11/02 09:35:45;;;;;;;15.10;2.95;;;;;;;11.26;88.41;102038.25;5092840;28;20535;-72
2022/11/02 09:38:10;;;;;;;14.48;3.03;;;;;;;11.32;87.49;102035.59;5092834;28;20028;-72
2022/11/02 09:40:58;;;;;;;14.38;3.13;;;;;;;11.42;86.79;102036.38;5092461;28;20360;-72
2022/11/02 09:43:30;;;;;;;13.10;2.72;;;;;;;11.51;87.63;102028.47;5092506;28;20089;-72
2022/11/02 09:46:03;;;;;;;13.13;2.25;;;;;;;11.56;85.89;102021.44;5093182;28;20115;-72
2022/11/02 09:48:43;;;;;;;15.15;2.63;;;;;;;11.47;86.06;102013.69;5092730;28;20052;-72
2022/11/02 09:51:13;;;;;;;14.35;2.88;;;;;;;11.67;86.65;102042.25;5092317;28;20052;-72
2022/11/02 09:53:51;;;;;;;14.40;2.72;;;;;;;11.72;86.16;102043.94;5093219;28;20020;-72
2022/11/02 09:56:19;;;;;;;18.40;3.28;;;;;;;11.72;85.92;102040.47;5092227;28;20020;-72
2022/11/02 09:58:52;;;;;;;14.05;2.42;;;;;;;11.63;85.72;102038.78;5092937;28;20024;-72
2022/11/02 10:01:31;;;;;;;17.48;3.55;;;;;;;11.61;86.58;102042.31;5092834;28;20050;-72
2022/11/02 10:04:11;;;;;;;14.07;2.75;;;;;;;11.60;86.54;102036.22;5092373;28;20028;-72
2022/11/02 10:06:43;;;;;;;14.68;2.75;;;;;;;11.65;84.58;102059.69;5080517;28;20024;-72
2022/11/02 10:09:44;;;;;;;15.05;2.75;;;;;;;11.73;84.41;102060.47;5092965;28;20032;-72
2022/11/02 10:12:38;;;;;;;14.15;3.25;;;;;;;11.77;84.32;102063.94;5088547;28;20046;-72
2022/11/02 10:15:12;;;;;;;12.25;2.35;;;;;;;11.85;82.81;102062.16;5092991;28;20028;-72
2022/11/02 10:17:40;;;;;;;15.70;2.85;;;;;;;11.88;84.39;102049.94;5092453;28;20334;-72
2022/11/02 10:20:35;;;;;;;17.70;2.58;;;;;;;11.92;83.32;102071.66;5092684;28;20024;-72
2022/11/02 10:23:05;;;;;;;11.48;2.10;;;;;;;11.93;82.15;102066.44;5092480;28;20050;-72
2022/11/02 10:25:33;;;;;;;14.68;2.80;;;;;;;11.90;82.70;102063.88;5092179;28;20152;-72
2022/11/02 10:28:07;;;;;;;13.85;2.72;;;;;;;11.86;83.09;102063.88;5092393;28;20024;-72
2022/11/02 10:30:33;;;;;;;14.77;2.38;;;;;;;11.92;83.39;102077.75;5092336;28;20467;-72
2022/11/02 10:32:58;;;;;;;14.90;2.40;;;;;;;11.92;80.51;102062.06;5091439;28;20059;-72
2022/11/02 10:35:42;;;;;;;10.02;2.22;;;;;;;11.99;80.07;102064.63;5092484;28;20084;-72
2022/11/02 10:38:13;;;;;;;9.18;2.00;;;;;;;11.99;80.12;102064.63;5092632;28;20028;-72
2022/11/02 10:41:12;;;;;;;10.38;2.35;;;;;;;11.96;80.40;102065.53;5091832;28;20046;-72
2022/11/02 10:44:11;;;;;;;12.15;2.95;;;;;;;12.03;80.51;102074.16;5095433;28;20028;-72
2022/11/02 10:46:49;;;;;;;16.67;2.55;;;;;;;12.12;79.91;102076.69;5096148;28;20028;-72
2022/11/02 10:49:36;;;;;;;13.20;2.33;;;;;;;12.17;78.70;102075.78;5096177;28;20035;-72
2022/11/02 10:52:03;;;;;;;19.58;2.22;;;;;;;12.14;75.73;102070.59;5096325;28;20558;-72
2022/11/02 10:54:28;;;;;;;11.57;2.42;;;;;;;12.23;77.62;102076.56;5081593;28;20081;-72
2022/11/02 10:56:55;;;;;;;10.60;2.33;;;;;;;12.27;74.17;102075.69;5096658;28;20476;-72
2022/11/02 10:59:24;;;;;;;12.45;2.00;;;;;;;12.32;75.03;102090.41;5096071;28;20016;-72
2022/11/02 11:01:56;;;;;;;16.00;2.20;;;;;;;12.28;76.84;102087.88;5095700;28;20031;-72
2022/11/02 11:04:30;;;;;;;10.70;2.03;;;;;;;12.35;76.79;102094.75;5096007;28;20023;-72
2022/11/02 11:06:56;;;;;;;8.73;1.73;;;;;;;12.53;74.17;102088.47;5094057;28;20031;-72
2022/11/02 11:09:30;;;;;;;10.18;1.70;;;;;;;12.58;74.34;102087.50;5095647;28;20161;-72
2022/11/02 11:12:05;;;;;;;11.43;2.58;;;;;;;12.64;72.01;102071.75;5094160;28;20032;-71
2022/11/02 11:14:38;;;;;;;8.43;2.10;;;;;;;12.77;72.61;102075.06;5090371;28;20111;-72
2022/11/02 11:17:14;;;;;;;8.50;1.92;;;;;;;12.86;74.40;102084.56;5095393;28;20024;-72
2022/11/02 11:19:54;;;;;;;12.23;2.30;;;;;;;12.88;73.29;102088.91;5095883;28;20051;-72
2022/11/02 11:22:40;;;;;;;12.70;2.20;;;;;;;12.97;75.14;102092.25;5094440;28;20472;-73
2022/11/02 11:25:11;;;;;;;11.63;2.42;;;;;;;13.12;73.40;102087.69;5082123;28;20115;-72
2022/11/02 11:27:56;;;;;;;12.18;2.08;;;;;;;13.22;71.80;102082.31;5094728;28;20543;-72
2022/11/02 11:30:28;;;;;;;12.40;2.70;;;;;;;13.23;70.19;102073.56;5082198;28;20391;-72
2022/11/02 11:32:56;;;;;;;10.57;1.77;;;;;;;13.33;71.41;102080.44;5095469;28;20560;-72
2022/11/02 11:35:24;;;;;;;11.98;2.28;;;;;;;13.44;70.05;102077.63;5092210;28;20464;-72
2022/11/02 11:37:56;;;;;;;12.45;2.30;;;;;;;13.49;67.84;102062.72;5094213;28;20046;-72
2022/11/02 11:40:22;;;;;;;11.50;1.80;;;;;;;13.41;70.00;102065.47;5094755;28;20372;-72
2022/11/02 11:42:50;;;;;;;18.45;2.50;;;;;;;13.42;70.23;102051.47;5093650;28;20079;-72
2022/11/02 11:45:23;;;;;;;12.88;2.42;;;;;;;13.55;69.78;102046.91;5094982;28;20084;-72